Time;durP1;ratioP1;P1;durP2;ratioP2;P2;SDS_P1;SDS_P2;PMS_P1;PMS_P2;Temp;Humidity;BMP_temperature;BMP_pressure;BME280_temperature;BME280_humidity;BME280_pressure;Samples;Min_cycle;Max_cycle;Signal;HPM_P1;HPM_P2
2022/03/25 00:00:07;;;;;;;46.42;26.35;;;;;;;;;;5074614;28;20041;-60
2022/03/25 00:02:39;;;;;;;62.28;31.08;;;;;;;;;;5074737;28;20471;-60
2022/03/25 00:05:04;;;;;;;63.80;34.22;;;;;;;;;;5074726;28;20032;-60
2022/03/25 00:07:30;;;;;;;73.38;35.78;;;;;;;;;;5074702;28;20028;-60
2022/03/25 00:09:56;;;;;;;69.57;35.67;;;;;;;;;;5074255;28;20038;-60
2022/03/25 00:12:21;;;;;;;62.15;32.97;;;;;;;;;;5074442;28;20078;-60
2022/03/25 00:14:47;;;;;;;57.63;31.42;;;;;;;;;;5074497;28;20496;-60
2022/03/25 00:17:12;;;;;;;53.78;29.98;;;;;;;;;;5074551;28;20032;-60
2022/03/25 00:19:38;;;;;;;56.97;29.80;;;;;;;;;;5074647;28;20040;-59
2022/03/25 00:22:03;;;;;;;45.35;27.42;;;;;;;;;;5074677;28;20107;-59
2022/03/25 00:24:29;;;;;;;46.58;27.05;;;;;;;;;;5074423;28;20036;-60
2022/03/25 00:26:54;;;;;;;46.30;26.95;;;;;;;;;;5074437;28;20047;-60
2022/03/25 00:29:20;;;;;;;41.05;24.02;;;;;;;;;;5074388;28;20131;-60
2022/03/25 00:31:46;;;;;;;33.67;21.55;;;;;;;;;;5074448;28;20032;-60
2022/03/25 00:34:11;;;;;;;36.35;22.20;;;;;;;;;;5056456;28;20056;-60
2022/03/25 00:36:37;;;;;;;44.10;23.83;;;;;;;;;;5073783;28;20045;-60
2022/03/25 00:39:02;;;;;;;45.38;24.10;;;;;;;;;;5055671;28;20052;-60
2022/03/25 00:41:28;;;;;;;39.15;23.38;;;;;;;;;;5055962;28;20090;-60
2022/03/25 00:43:54;;;;;;;41.78;23.98;;;;;;;;;;5056000;28;20492;-60
2022/03/25 00:46:19;;;;;;;37.10;22.20;;;;;;;;;;5074242;28;20037;-60
2022/03/25 00:48:45;;;;;;;30.13;20.30;;;;;;;;;;5056174;28;20132;-60
2022/03/25 00:51:10;;;;;;;29.73;19.60;;;;;;;;;;5073946;28;20028;-60
2022/03/25 00:53:36;;;;;;;36.90;20.92;;;;;;;;;;5073880;28;20101;-60
2022/03/25 00:56:03;;;;;;;34.17;20.00;;;;;;;;;;5055878;28;20413;-60
2022/03/25 00:58:29;;;;;;;30.25;19.55;;;;;;;;;;5055949;28;20041;-60
2022/03/25 01:00:55;;;;;;;30.88;18.42;;;;;;;;;;5055674;28;20032;-60
2022/03/25 01:03:21;;;;;;;32.97;19.10;;;;;;;;;;5073620;28;20031;-60
2022/03/25 01:05:49;;;;;;;32.33;19.15;;;;;;;;;;5055815;28;20025;-60
2022/03/25 01:08:16;;;;;;;35.33;19.92;;;;;;;;;;5073490;28;20037;-61
2022/03/25 01:10:41;;;;;;;29.42;18.95;;;;;;;;;;5055533;28;20039;-61
2022/03/25 01:13:07;;;;;;;28.27;19.25;;;;;;;;;;5073566;28;20033;-60
2022/03/25 01:15:33;;;;;;;31.90;19.80;;;;;;;;;;5055342;28;20110;-60
2022/03/25 01:18:00;;;;;;;33.70;19.90;;;;;;;;;;5073409;28;20071;-61
2022/03/25 01:20:25;;;;;;;33.97;18.92;;;;;;;;;;5073305;28;20056;-61
2022/03/25 01:22:51;;;;;;;34.05;20.23;;;;;;;;;;5055492;28;20420;-61
2022/03/25 01:25:17;;;;;;;36.72;19.60;;;;;;;;;;5055616;28;20103;-61
2022/03/25 01:27:43;;;;;;;30.25;19.38;;;;;;;;;;5055279;28;20047;-59
2022/03/25 01:30:10;;;;;;;31.27;18.88;;;;;;;;;;5073426;28;20486;-59
2022/03/25 01:32:35;;;;;;;33.00;19.75;;;;;;;;;;5055287;28;20039;-59
2022/03/25 01:35:02;;;;;;;31.83;20.08;;;;;;;;;;5055459;28;20032;-59
2022/03/25 01:37:29;;;;;;;31.67;20.10;;;;;;;;;;5064871;28;20063;-59
2022/03/25 01:39:55;;;;;;;33.50;19.58;;;;;;;;;;5075260;28;20083;-59
2022/03/25 01:42:32;;;;;;;29.63;19.17;;;;;;;;;;5075325;28;20024;-59
2022/03/25 01:44:57;;;;;;;31.30;19.77;;;;;;;;;;5075072;28;20047;-59
2022/03/25 01:47:27;;;;;;;32.95;18.70;;;;;;;;;;5075002;28;20028;-59
2022/03/25 01:49:52;;;;;;;31.67;19.48;;;;;;;;;;5093626;28;20066;-58
2022/03/25 01:52:18;;;;;;;31.35;20.13;;;;;;;;;;5097527;28;20028;-59
2022/03/25 01:54:46;;;;;;;32.05;19.70;;;;;;;;;;5097546;28;20040;-59
2022/03/25 01:57:13;;;;;;;34.67;21.30;;;;;;;;;;5078754;28;20032;-59
2022/03/25 01:59:39;;;;;;;34.65;20.65;;;;;;;;;;5079264;28;20131;-60
2022/03/25 02:02:05;;;;;;;40.38;21.98;;;;;;;;;;5097250;28;20059;-60
2022/03/25 02:04:31;;;;;;;39.38;21.60;;;;;;;;;;5097322;28;20028;-60
2022/03/25 02:06:57;;;;;;;38.72;21.90;;;;;;;;;;5079439;28;20038;-60
2022/03/25 02:09:22;;;;;;;34.30;20.83;;;;;;;;;;5079298;28;20028;-60
2022/03/25 02:11:48;;;;;;;32.00;19.60;;;;;;;;;;5097189;28;20486;-60
2022/03/25 02:14:13;;;;;;;33.38;19.73;;;;;;;;;;5078822;28;20490;-60
2022/03/25 02:16:41;;;;;;;31.98;18.65;;;;;;;;;;5078989;28;20081;-60
2022/03/25 02:19:09;;;;;;;33.60;19.58;;;;;;;;;;5078759;28;20123;-60
2022/03/25 02:21:38;;;;;;;31.45;19.05;;;;;;;;;;5079051;28;20081;-61
2022/03/25 02:24:05;;;;;;;33.47;19.90;;;;;;;;;;5078829;28;20089;-61
2022/03/25 02:26:31;;;;;;;28.55;19.00;;;;;;;;;;5062321;28;20020;-60
2022/03/25 02:29:00;;;;;;;32.95;19.45;;;;;;;;;;5078698;28;20058;-60
2022/03/25 02:31:26;;;;;;;30.98;19.85;;;;;;;;;;5062118;28;20447;-60
2022/03/25 02:34:03;;;;;;;33.70;19.70;;;;;;;;;;5078372;28;20374;-60
2022/03/25 02:36:29;;;;;;;34.55;19.58;;;;;;;;;;5095030;28;20036;-60
2022/03/25 02:38:54;;;;;;;36.83;20.95;;;;;;;;;;5058165;28;20544;-66
2022/03/25 02:41:20;;;;;;;39.80;21.40;;;;;;;;;;5057293;28;20497;-66
2022/03/25 02:43:45;;;;;;;37.42;21.15;;;;;;;;;;5075927;28;20021;-66
2022/03/25 02:46:13;;;;;;;36.58;20.30;;;;;;;;;;5058290;28;20043;-66
2022/03/25 02:48:39;;;;;;;31.63;19.48;;;;;;;;;;5058252;28;20028;-66
2022/03/25 02:51:05;;;;;;;32.30;20.00;;;;;;;;;;5058321;28;20177;-66
2022/03/25 02:53:31;;;;;;;32.53;20.27;;;;;;;;;;5058041;28;20115;-66
2022/03/25 02:55:56;;;;;;;33.63;20.23;;;;;;;;;;5058225;28;20183;-60
2022/03/25 02:58:22;;;;;;;34.53;20.80;;;;;;;;;;5076095;28;20028;-60
2022/03/25 03:00:47;;;;;;;33.80;20.65;;;;;;;;;;5075886;28;20491;-60
2022/03/25 03:03:12;;;;;;;37.22;20.50;;;;;;;;;;5075183;28;20514;-59
2022/03/25 03:05:38;;;;;;;32.03;20.35;;;;;;;;;;5075717;28;20150;-60
2022/03/25 03:08:04;;;;;;;33.22;20.83;;;;;;;;;;5057894;28;20020;-60
2022/03/25 03:10:29;;;;;;;35.13;20.95;;;;;;;;;;5057851;28;20076;-60
2022/03/25 03:12:55;;;;;;;33.72;19.48;;;;;;;;;;5075744;28;20103;-60
2022/03/25 03:15:21;;;;;;;34.63;20.55;;;;;;;;;;5075629;28;20810;-60
2022/03/25 03:17:47;;;;;;;33.55;20.45;;;;;;;;;;5075514;28;20550;-60
2022/03/25 03:20:13;;;;;;;36.28;20.73;;;;;;;;;;5057739;28;20119;-60
2022/03/25 03:22:39;;;;;;;33.92;20.00;;;;;;;;;;5075698;28;20086;-60
2022/03/25 03:25:05;;;;;;;36.92;21.30;;;;;;;;;;5057860;28;20037;-60
2022/03/25 03:27:30;;;;;;;34.15;21.10;;;;;;;;;;5075453;28;20538;-60
2022/03/25 03:29:56;;;;;;;38.40;21.88;;;;;;;;;;5075533;28;20036;-60
2022/03/25 03:32:22;;;;;;;38.72;21.90;;;;;;;;;;5075498;28;20044;-60
2022/03/25 03:34:48;;;;;;;34.20;20.58;;;;;;;;;;5057459;28;20473;-60
2022/03/25 03:37:13;;;;;;;32.80;20.13;;;;;;;;;;5074971;28;20040;-60
2022/03/25 03:39:39;;;;;;;32.40;20.35;;;;;;;;;;5075278;28;20054;-60
2022/03/25 03:42:04;;;;;;;32.55;20.77;;;;;;;;;;5075343;28;20062;-60
2022/03/25 03:44:30;;;;;;;32.38;20.73;;;;;;;;;;5075269;28;20060;-60
2022/03/25 03:46:58;;;;;;;35.72;21.10;;;;;;;;;;5040343;28;20459;-60
2022/03/25 03:49:24;;;;;;;36.33;20.50;;;;;;;;;;5075428;28;20041;-60
2022/03/25 03:51:50;;;;;;;34.80;20.80;;;;;;;;;;5074991;28;20115;-60
2022/03/25 03:54:15;;;;;;;35.97;22.92;;;;;;;;;;5074898;28;20040;-60
2022/03/25 03:57:00;;;;;;;40.72;21.08;;;;;;;;;;5075507;28;20036;-60
2022/03/25 03:59:26;;;;;;;34.75;19.65;;;;;;;;;;5075051;28;20127;-59
2022/03/25 04:01:51;;;;;;;34.20;19.83;;;;;;;;;;5074894;28;20543;-60
2022/03/25 04:04:17;;;;;;;36.83;18.90;;;;;;;;;;5074684;28;20437;-59
2022/03/25 04:06:44;;;;;;;32.00;19.13;;;;;;;;;;5074759;28;20027;-60
2022/03/25 04:09:09;;;;;;;29.23;19.52;;;;;;;;;;5056780;28;20064;-59
2022/03/25 04:11:35;;;;;;;32.65;19.48;;;;;;;;;;5056641;28;20461;-60
2022/03/25 04:14:01;;;;;;;35.90;20.70;;;;;;;;;;5074515;28;20098;-60
2022/03/25 04:16:33;;;;;;;33.60;19.40;;;;;;;;;;5074657;28;20029;-60
2022/03/25 04:18:59;;;;;;;31.95;20.45;;;;;;;;;;5074314;28;20039;-60
2022/03/25 04:21:24;;;;;;;31.15;19.55;;;;;;;;;;5074201;28;20025;-60
2022/03/25 04:23:51;;;;;;;32.05;19.80;;;;;;;;;;5074240;28;20043;-60
2022/03/25 04:26:19;;;;;;;34.58;19.98;;;;;;;;;;5056695;28;20546;-60
2022/03/25 04:28:45;;;;;;;34.78;20.20;;;;;;;;;;5074254;28;20028;-60
2022/03/25 04:31:10;;;;;;;29.83;19.77;;;;;;;;;;5074250;28;20051;-60
2022/03/25 04:33:37;;;;;;;32.60;21.00;;;;;;;;;;5074190;28;20171;-60
2022/03/25 04:36:02;;;;;;;33.15;20.45;;;;;;;;;;5074204;28;20039;-60
2022/03/25 04:38:28;;;;;;;31.48;19.77;;;;;;;;;;5074067;28;20056;-60
2022/03/25 04:40:53;;;;;;;29.98;20.00;;;;;;;;;;5074222;28;20037;-60
2022/03/25 04:43:19;;;;;;;29.77;18.73;;;;;;;;;;5073894;28;20556;-61
2022/03/25 04:45:44;;;;;;;31.10;19.55;;;;;;;;;;5074033;28;20087;-60
2022/03/25 04:48:11;;;;;;;38.40;20.58;;;;;;;;;;5074044;28;20124;-60
2022/03/25 04:50:39;;;;;;;38.10;22.58;;;;;;;;;;5073896;28;20382;-68
2022/03/25 04:53:06;;;;;;;41.63;22.45;;;;;;;;;;5056078;28;20044;-67
2022/03/25 04:55:32;;;;;;;38.70;21.40;;;;;;;;;;5073784;28;20035;-67
2022/03/25 04:57:57;;;;;;;37.10;21.42;;;;;;;;;;5073551;28;20123;-66
2022/03/25 05:00:24;;;;;;;40.67;21.55;;;;;;;;;;5073661;28;20035;-66
2022/03/25 05:02:49;;;;;;;44.42;21.50;;;;;;;;;;5073776;28;20040;-66
2022/03/25 05:05:17;;;;;;;38.95;20.55;;;;;;;;;;5073720;28;20075;-66
2022/03/25 05:07:44;;;;;;;39.83;21.42;;;;;;;;;;5073382;28;20041;-66
2022/03/25 05:10:13;;;;;;;36.85;21.30;;;;;;;;;;5073547;28;20036;-66
2022/03/25 05:12:39;;;;;;;40.03;20.60;;;;;;;;;;5055600;28;20048;-67
2022/03/25 05:15:05;;;;;;;37.22;22.13;;;;;;;;;;5055601;28;20036;-66
2022/03/25 05:17:32;;;;;;;43.75;20.88;;;;;;;;;;5073667;28;20044;-66
2022/03/25 05:19:57;;;;;;;43.50;21.95;;;;;;;;;;5073569;28;20070;-66
2022/03/25 05:22:23;;;;;;;48.47;20.05;;;;;;;;;;5073616;28;20037;-66
2022/03/25 05:24:48;;;;;;;40.97;20.10;;;;;;;;;;5072535;28;20028;-67
2022/03/25 05:27:14;;;;;;;42.97;20.95;;;;;;;;;;5073512;28;20048;-66
2022/03/25 05:29:39;;;;;;;34.28;19.23;;;;;;;;;;5073307;28;20040;-67
2022/03/25 05:32:05;;;;;;;35.63;20.08;;;;;;;;;;5055595;28;20037;-66
2022/03/25 05:34:31;;;;;;;40.42;19.65;;;;;;;;;;5073432;28;20090;-66
2022/03/25 05:36:56;;;;;;;41.80;21.13;;;;;;;;;;5072865;28;20064;-67
2022/03/25 05:39:22;;;;;;;46.40;24.58;;;;;;;;;;5072873;28;20419;-66
2022/03/25 05:41:48;;;;;;;52.95;24.48;;;;;;;;;;5073144;28;20044;-66
2022/03/25 05:44:14;;;;;;;50.03;23.98;;;;;;;;;;5073381;28;20104;-67
2022/03/25 05:46:40;;;;;;;49.72;24.60;;;;;;;;;;5073288;28;20102;-67
2022/03/25 05:49:05;;;;;;;45.97;24.20;;;;;;;;;;5073421;28;20450;-66
2022/03/25 05:51:31;;;;;;;45.80;24.63;;;;;;;;;;5073245;28;20037;-66
2022/03/25 05:53:56;;;;;;;46.60;25.92;;;;;;;;;;5073184;28;20036;-67
2022/03/25 05:56:22;;;;;;;53.15;27.33;;;;;;;;;;5073258;28;20036;-67
2022/03/25 05:58:48;;;;;;;55.38;27.65;;;;;;;;;;5073235;28;20020;-67
2022/03/25 06:01:13;;;;;;;54.78;28.63;;;;;;;;;;5072927;28;20394;-67
2022/03/25 06:03:39;;;;;;;57.53;29.63;;;;;;;;;;5073003;28;20028;-67
2022/03/25 06:06:05;;;;;;;56.53;30.10;;;;;;;;;;5055088;28;20071;-67
2022/03/25 06:08:30;;;;;;;49.80;27.52;;;;;;;;;;5073017;28;20024;-67
2022/03/25 06:10:56;;;;;;;45.78;25.17;;;;;;;;;;5072972;28;20037;-67
2022/03/25 06:13:22;;;;;;;58.50;29.55;;;;;;;;;;5073273;28;20033;-66
2022/03/25 06:15:47;;;;;;;47.35;27.38;;;;;;;;;;5072883;28;20394;-67
2022/03/25 06:18:13;;;;;;;36.10;21.45;;;;;;;;;;5072814;28;20047;-67
2022/03/25 06:20:39;;;;;;;44.97;23.95;;;;;;;;;;5054709;28;20040;-67
2022/03/25 06:23:05;;;;;;;37.67;19.52;;;;;;;;;;5072804;28;20029;-67
2022/03/25 06:25:31;;;;;;;41.28;18.98;;;;;;;;;;5072882;28;20549;-67
2022/03/25 06:27:59;;;;;;;48.58;24.42;;;;;;;;;;5073008;28;20070;-67
2022/03/25 06:30:31;;;;;;;49.80;24.63;;;;;;;;;;5071629;28;20498;-67
2022/03/25 06:32:57;;;;;;;54.42;26.63;;;;;;;;;;5066576;28;20052;-70
2022/03/25 06:35:22;;;;;;;59.78;30.05;;;;;;;;;;5069709;28;20036;-70
2022/03/25 06:37:48;;;;;;;51.65;26.75;;;;;;;;;;5071059;28;20368;-70
2022/03/25 06:40:15;;;;;;;50.58;27.55;;;;;;;;;;5054718;28;20037;-70
2022/03/25 06:42:42;;;;;;;52.13;29.27;;;;;;;;;;5072907;28;20052;-69
2022/03/25 06:45:09;;;;;;;50.80;26.75;;;;;;;;;;5054765;28;20020;-69
2022/03/25 06:51:10;;;;;;;53.13;26.42;;;;;;;;;;5076779;28;20061;-66
2022/03/25 06:53:35;;;;;;;52.63;26.05;;;;;;;;;;5073838;28;20041;-66
2022/03/25 06:56:01;;;;;;;51.50;24.17;;;;;;;;;;5072719;28;20035;-66
2022/03/25 06:58:27;;;;;;;48.45;24.10;;;;;;;;;;5054834;28;20036;-67
2022/03/25 07:00:53;;;;;;;52.50;25.48;;;;;;;;;;5072467;28;20043;-67
2022/03/25 07:03:19;;;;;;;50.50;23.17;;;;;;;;;;5072662;28;20127;-67
2022/03/25 07:05:44;;;;;;;47.42;24.52;;;;;;;;;;5072990;28;20063;-67
2022/03/25 07:08:10;;;;;;;42.20;22.98;;;;;;;;;;5072675;28;20768;-67
2022/03/25 07:10:36;;;;;;;44.75;23.70;;;;;;;;;;5072338;28;20435;-67
2022/03/25 07:13:02;;;;;;;47.78;23.30;;;;;;;;;;5072611;28;20056;-66
2022/03/25 07:15:27;;;;;;;44.95;23.88;;;;;;;;;;5054073;28;20038;-67
2022/03/25 07:17:53;;;;;;;45.17;23.83;;;;;;;;;;5072343;28;20453;-69
2022/03/25 07:20:22;;;;;;;54.28;24.63;;;;;;;;;;5057338;28;20089;-68
2022/03/25 07:22:48;;;;;;;42.20;23.17;;;;;;;;;;5075754;28;20052;-69
2022/03/25 07:25:15;;;;;;;44.97;23.80;;;;;;;;;;5075211;28;20033;-69
2022/03/25 07:27:41;;;;;;;44.85;22.08;;;;;;;;;;5075464;28;20509;-69
2022/03/25 07:30:07;;;;;;;39.80;21.30;;;;;;;;;;5075398;28;20024;-69
2022/03/25 07:32:33;;;;;;;41.53;21.55;;;;;;;;;;5075548;28;20029;-69
2022/03/25 07:34:58;;;;;;;42.95;22.77;;;;;;;;;;5040895;28;20033;-71
2022/03/25 07:37:24;;;;;;;46.15;22.27;;;;;;;;;;5057239;28;20127;-69
2022/03/25 07:39:50;;;;;;;44.33;22.08;;;;;;;;;;5075150;28;20382;-70
2022/03/25 07:42:15;;;;;;;44.80;21.55;;;;;;;;;;5074650;28;20046;-70
2022/03/25 07:44:41;;;;;;;44.97;21.77;;;;;;;;;;5075203;28;20120;-70
2022/03/25 07:47:07;;;;;;;44.75;21.88;;;;;;;;;;5075376;28;20090;-70
2022/03/25 07:49:38;;;;;;;61.63;22.88;;;;;;;;;;5074817;28;20033;-69
2022/03/25 07:52:04;;;;;;;45.80;21.35;;;;;;;;;;5056999;28;20082;-70
2022/03/25 07:54:29;;;;;;;41.22;20.92;;;;;;;;;;5074903;28;20425;-70
2022/03/25 07:56:58;;;;;;;42.10;20.92;;;;;;;;;;5057009;28;20128;-69
2022/03/25 07:59:24;;;;;;;44.25;20.42;;;;;;;;;;5056811;28;20356;-69
2022/03/25 08:01:51;;;;;;;43.97;21.20;;;;;;;;;;5074885;28;20536;-69
2022/03/25 08:04:16;;;;;;;40.75;19.30;;;;;;;;;;5074918;28;20363;-69
2022/03/25 08:06:42;;;;;;;36.28;18.90;;;;;;;;;;5075039;28;20036;-70
2022/03/25 08:09:08;;;;;;;39.10;18.60;;;;;;;;;;5074957;28;20401;-69
2022/03/25 08:11:33;;;;;;;34.33;17.25;;;;;;;;;;5056709;28;20040;-69
2022/03/25 08:13:58;;;;;;;33.38;17.42;;;;;;;;;;5074566;28;20098;-69
2022/03/25 08:16:24;;;;;;;33.60;17.67;;;;;;;;;;5074426;28;20031;-70
2022/03/25 08:18:49;;;;;;;31.30;16.38;;;;;;;;;;5072662;28;20430;-69
2022/03/25 08:21:15;;;;;;;24.63;14.40;;;;;;;;;;5068775;28;20056;-70
2022/03/25 08:29:10;;;;;;;23.95;12.80;;;;;;;;;;5070798;28;20051;-70
2022/03/25 08:31:35;;;;;;;22.33;11.80;;;;;;;;;;5071188;28;20455;-70
2022/03/25 08:34:01;;;;;;;20.90;12.45;;;;;;;;;;5071137;28;20043;-61
2022/03/25 08:36:27;;;;;;;18.58;10.07;;;;;;;;;;5070853;28;20111;-61
2022/03/25 08:38:52;;;;;;;18.60;11.88;;;;;;;;;;5070926;28;20538;-61
2022/03/25 08:41:18;;;;;;;23.17;11.70;;;;;;;;;;5070619;28;20049;-61
2022/03/25 08:43:43;;;;;;;18.95;8.98;;;;;;;;;;5071015;28;20036;-61
2022/03/25 08:46:09;;;;;;;17.88;10.50;;;;;;;;;;5070654;28;20028;-61
2022/03/25 08:48:34;;;;;;;19.05;10.82;;;;;;;;;;5070462;28;20036;-61
2022/03/25 08:51:00;;;;;;;18.48;11.27;;;;;;;;;;5070443;28;20037;-62
2022/03/25 08:53:26;;;;;;;21.70;11.13;;;;;;;;;;5070540;28;20055;-62
2022/03/25 08:55:51;;;;;;;21.20;11.90;;;;;;;;;;5070557;28;20039;-61
2022/03/25 08:58:17;;;;;;;23.83;11.02;;;;;;;;;;5070230;28;20036;-69
2022/03/25 09:00:42;;;;;;;20.50;11.43;;;;;;;;;;5069609;28;20028;-70
2022/03/25 09:03:08;;;;;;;21.00;10.73;;;;;;;;;;5070328;28;20040;-69
2022/03/25 09:05:33;;;;;;;14.65;9.05;;;;;;;;;;5070267;28;20391;-70
2022/03/25 09:07:59;;;;;;;22.98;11.05;;;;;;;;;;5070290;28;20048;-70
2022/03/25 09:10:27;;;;;;;19.45;10.90;;;;;;;;;;5070340;28;20802;-69
2022/03/25 09:12:52;;;;;;;21.50;10.82;;;;;;;;;;5070161;28;20135;-69
2022/03/25 09:15:17;;;;;;;12.23;7.03;;;;;;;;;;5070083;28;20206;-69
2022/03/25 09:17:46;;;;;;;13.88;8.50;;;;;;;;;;5070131;28;20060;-69
2022/03/25 09:20:13;;;;;;;8.80;5.68;;;;;;;;;;5070273;28;20021;-70
2022/03/25 09:22:39;;;;;;;19.13;10.63;;;;;;;;;;5070155;28;20047;-70
2022/03/25 09:25:05;;;;;;;19.67;9.90;;;;;;;;;;5070378;28;20028;-70
2022/03/25 09:28:03;;;;;;;18.60;9.60;;;;;;;;;;5070254;28;20043;-70
2022/03/25 09:30:28;;;;;;;23.52;11.02;;;;;;;;;;5070459;28;20127;-69
2022/03/25 09:32:54;;;;;;;33.22;18.80;;;;;;;;;;5052316;28;20675;-70
2022/03/25 09:35:21;;;;;;;55.40;37.13;;;;;;;;;;5069989;28;20040;-70
2022/03/25 09:37:47;;;;;;;20.92;11.57;;;;;;;;;;5059575;28;20044;-70
2022/03/25 09:40:18;;;;;;;20.85;11.02;;;;;;;;;;5069874;28;20064;-70
2022/03/25 09:42:44;;;;;;;11.38;6.28;;;;;;;;;;5070195;28;20091;-70
2022/03/25 09:45:10;;;;;;;18.45;9.43;;;;;;;;;;5069800;28;20036;-70
2022/03/25 09:47:36;;;;;;;16.95;10.32;;;;;;;;;;5069832;28;20087;-70
2022/03/25 09:50:03;;;;;;;16.70;10.40;;;;;;;;;;5070084;28;20064;-70
2022/03/25 09:52:30;;;;;;;17.13;8.88;;;;;;;;;;5070034;28;20049;-70
2022/03/25 09:54:55;;;;;;;16.52;9.80;;;;;;;;;;5068063;28;20389;-70
2022/03/25 09:57:21;;;;;;;16.48;9.35;;;;;;;;;;5069741;28;20044;-69
2022/03/25 09:59:46;;;;;;;19.48;10.30;;;;;;;;;;5069923;28;20520;-69
2022/03/25 10:02:12;;;;;;;12.45;8.52;;;;;;;;;;5069895;28;20139;-70
2022/03/25 10:04:40;;;;;;;14.85;9.05;;;;;;;;;;5069580;28;20029;-70
2022/03/25 10:07:22;;;;;;;26.02;12.10;;;;;;;;;;5069378;28;20040;-70
2022/03/25 10:10:04;;;;;;;39.08;21.05;;;;;;;;;;5068313;28;20131;-70
2022/03/25 10:12:30;;;;;;;20.50;11.15;;;;;;;;;;5072237;28;20552;-70
2022/03/25 10:15:13;;;;;;;13.70;8.95;;;;;;;;;;5073577;28;20037;-70
2022/03/25 10:17:49;;;;;;;16.20;9.93;;;;;;;;;;5073374;28;20139;-70
2022/03/25 10:20:15;;;;;;;14.48;8.98;;;;;;;;;;5072013;28;20203;-70
2022/03/25 10:22:56;;;;;;;11.70;7.63;;;;;;;;;;5073407;28;20032;-70
2022/03/25 10:25:48;;;;;;;15.98;9.45;;;;;;;;;;5073461;28;20036;-70
2022/03/25 10:28:27;;;;;;;12.52;8.07;;;;;;;;;;5070252;28;20043;-70
2022/03/25 10:31:00;;;;;;;16.50;11.63;;;;;;;;;;5073413;28;20068;-70
2022/03/25 10:33:30;;;;;;;22.85;12.88;;;;;;;;;;5073193;28;20274;-70
2022/03/25 10:36:07;;;;;;;16.08;9.02;;;;;;;;;;5073183;28;20044;-70
2022/03/25 10:38:40;;;;;;;10.63;6.43;;;;;;;;;;5072441;28;20087;-70
2022/03/25 10:41:06;;;;;;;14.10;8.52;;;;;;;;;;5072726;28;20056;-70
2022/03/25 10:43:31;;;;;;;15.45;8.43;;;;;;;;;;5075207;28;20386;-70
2022/03/25 10:45:57;;;;;;;16.35;9.38;;;;;;;;;;5073101;28;20132;-70
2022/03/25 10:48:28;;;;;;;16.35;10.23;;;;;;;;;;5072301;28;20040;-70
2022/03/25 10:51:07;;;;;;;13.50;7.10;;;;;;;;;;5054846;28;20037;-70
2022/03/25 10:53:36;;;;;;;20.55;7.85;;;;;;;;;;5054618;28;20064;-70
2022/03/25 10:56:10;;;;;;;16.40;7.15;;;;;;;;;;5072781;28;20791;-70
2022/03/25 10:58:36;;;;;;;15.30;8.73;;;;;;;;;;5072438;28;20040;-70
2022/03/25 11:01:02;;;;;;;13.40;8.75;;;;;;;;;;5054710;28;20051;-70
2022/03/25 11:03:27;;;;;;;17.23;7.85;;;;;;;;;;5072726;28;20127;-71
2022/03/25 11:05:53;;;;;;;18.50;9.52;;;;;;;;;;5054482;28;20116;-61
2022/03/25 11:08:18;;;;;;;14.85;8.07;;;;;;;;;;5072443;28;20364;-62
2022/03/25 11:10:45;;;;;;;17.67;9.05;;;;;;;;;;5072805;28;20036;-62
2022/03/25 11:13:10;;;;;;;16.48;7.97;;;;;;;;;;5072550;28;20083;-61
2022/03/25 11:15:37;;;;;;;12.77;7.28;;;;;;;;;;5072402;28;20064;-61
2022/03/25 11:18:03;;;;;;;16.02;9.27;;;;;;;;;;5072351;28;20044;-62
2022/03/25 11:20:28;;;;;;;12.18;6.53;;;;;;;;;;5072421;28;20043;-61
2022/03/25 11:23:08;;;;;;;8.20;4.97;;;;;;;;;;5071288;28;20059;-61
2022/03/25 11:25:37;;;;;;;12.77;8.45;;;;;;;;;;5054344;28;20033;-62
2022/03/25 11:28:04;;;;;;;17.02;8.40;;;;;;;;;;5053963;28;20124;-61
2022/03/25 11:30:35;;;;;;;13.98;8.00;;;;;;;;;;5072220;28;20052;-62
2022/03/25 11:33:03;;;;;;;11.05;5.90;;;;;;;;;;5072498;28;20044;-61
2022/03/25 11:35:33;;;;;;;14.73;8.20;;;;;;;;;;5072208;28;20040;-61
2022/03/25 11:38:12;;;;;;;15.43;7.68;;;;;;;;;;5071640;28;20048;-61
2022/03/25 11:40:42;;;;;;;14.80;7.43;;;;;;;;;;5053862;28;20068;-61
2022/03/25 11:43:14;;;;;;;14.05;8.43;;;;;;;;;;5072178;28;20045;-61
2022/03/25 11:45:39;;;;;;;9.65;7.00;;;;;;;;;;5071709;28;20421;-61
2022/03/25 11:48:05;;;;;;;9.68;6.80;;;;;;;;;;5071804;28;20478;-62
2022/03/25 11:50:31;;;;;;;11.38;6.18;;;;;;;;;;5071973;28;20032;-61
2022/03/25 11:52:57;;;;;;;12.90;7.65;;;;;;;;;;5071734;28;20135;-61
2022/03/25 11:55:23;;;;;;;10.27;6.85;;;;;;;;;;5053732;28;20044;-62
2022/03/25 11:57:49;;;;;;;20.73;9.23;;;;;;;;;;5071451;28;20390;-62
2022/03/25 12:00:28;;;;;;;9.98;6.88;;;;;;;;;;5071418;28;20056;-61
2022/03/25 12:03:01;;;;;;;8.90;6.60;;;;;;;;;;5071417;28;20390;-61
2022/03/25 12:05:27;;;;;;;9.27;6.78;;;;;;;;;;5071669;28;20459;-62
2022/03/25 12:08:11;;;;;;;10.40;5.65;;;;;;;;;;5071696;28;20043;-61
2022/03/25 12:10:45;;;;;;;8.43;5.93;;;;;;;;;;5053506;28;20047;-61
2022/03/25 12:13:11;;;;;;;27.48;6.88;;;;;;;;;;5071466;28;20037;-61
2022/03/25 12:15:54;;;;;;;13.75;7.15;;;;;;;;;;5071609;28;20509;-61
2022/03/25 12:18:40;;;;;;;16.48;7.53;;;;;;;;;;5071089;28;20048;-61
2022/03/25 12:21:20;;;;;;;12.80;6.93;;;;;;;;;;5071196;28;20075;-61
2022/03/25 12:23:49;;;;;;;;;;;;;;;;;;5053840;28;20037;-62
2022/03/25 12:26:14;;;;;;;7.68;5.30;;;;;;;;;;5071313;28;19908;-62
2022/03/25 12:28:40;;;;;;;6.70;4.65;;;;;;;;;;5070651;28;20410;-61
2022/03/25 12:31:06;;;;;;;7.55;5.15;;;;;;;;;;5071231;28;20119;-61
2022/03/25 12:33:31;;;;;;;10.25;4.88;;;;;;;;;;5071272;28;20055;-62
2022/03/25 12:35:58;;;;;;;10.27;5.40;;;;;;;;;;5070507;28;20043;-63
2022/03/25 12:38:25;;;;;;;8.35;6.03;;;;;;;;;;5066206;28;20095;-61
2022/03/25 12:40:51;;;;;;;12.20;7.15;;;;;;;;;;5070841;28;20094;-60
2022/03/25 12:43:17;;;;;;;17.10;9.60;;;;;;;;;;5070721;28;20517;-60
2022/03/25 12:45:44;;;;;;;8.27;6.07;;;;;;;;;;5070777;28;20036;-60
2022/03/25 12:48:11;;;;;;;11.10;5.57;;;;;;;;;;5070318;28;20063;-60
2022/03/25 12:50:38;;;;;;;6.07;4.47;;;;;;;;;;5070659;28;20067;-60
2022/03/25 12:53:04;;;;;;;9.57;5.15;;;;;;;;;;5070277;28;20037;-61
2022/03/25 12:55:32;;;;;;;7.65;5.28;;;;;;;;;;5070948;28;20021;-60
2022/03/25 12:58:04;;;;;;;8.48;5.55;;;;;;;;;;5069523;28;20052;-61
2022/03/25 13:00:43;;;;;;;11.75;5.28;;;;;;;;;;5069503;28;20067;-63
2022/03/25 13:03:10;;;;;;;11.35;6.07;;;;;;;;;;5070189;28;20055;-63
2022/03/25 13:05:36;;;;;;;9.13;6.00;;;;;;;;;;5069373;28;20032;-63
2022/03/25 13:08:05;;;;;;;11.50;6.03;;;;;;;;;;5068420;28;20464;-60
2022/03/25 13:10:30;;;;;;;7.43;5.45;;;;;;;;;;5066948;28;20391;-62
2022/03/25 13:12:58;;;;;;;4.72;2.60;;;;;;;;;;5068348;28;20498;-62
2022/03/25 13:15:28;;;;;;;6.72;5.18;;;;;;;;;;5069379;28;20086;-62
2022/03/25 13:18:04;;;;;;;5.43;4.78;;;;;;;;;;5069575;28;20089;-63
2022/03/25 13:20:31;;;;;;;9.13;5.45;;;;;;;;;;5069546;28;20375;-63
2022/03/25 13:22:57;;;;;;;7.82;5.47;;;;;;;;;;5069958;28;20413;-63
2022/03/25 13:25:26;;;;;;;6.53;4.13;;;;;;;;;;5070224;28;20040;-63
2022/03/25 13:27:53;;;;;;;18.13;5.72;;;;;;;;;;5064090;28;20040;-63
2022/03/25 13:30:18;;;;;;;9.63;5.38;;;;;;;;;;5068626;28;20051;-63
2022/03/25 13:32:44;;;;;;;8.25;3.03;;;;;;;;;;5070149;28;20033;-62
2022/03/25 13:35:11;;;;;;;8.82;4.75;;;;;;;;;;5070393;28;20098;-63
2022/03/25 13:37:37;;;;;;;11.25;5.57;;;;;;;;;;5069605;28;20052;-63
2022/03/25 13:40:03;;;;;;;9.55;4.63;;;;;;;;;;5069934;28;20052;-63
2022/03/25 13:42:33;;;;;;;7.72;3.20;;;;;;;;;;5069880;28;20412;-63
2022/03/25 13:45:09;;;;;;;8.87;4.87;;;;;;;;;;5069922;28;20042;-62
2022/03/25 13:47:35;;;;;;;7.70;5.95;;;;;;;;;;5075602;28;20051;-62
2022/03/25 13:50:09;;;;;;;19.27;11.55;;;;;;;;;;5076127;28;20033;-63
2022/03/25 13:52:35;;;;;;;8.63;5.32;;;;;;;;;;5076693;28;20067;-63
2022/03/25 13:55:14;;;;;;;10.90;5.90;;;;;;;;;;5076385;28;20032;-63
2022/03/25 13:57:40;;;;;;;9.80;6.30;;;;;;;;;;5076453;28;20055;-63
2022/03/25 14:00:07;;;;;;;10.93;6.32;;;;;;;;;;5076105;28;20425;-63
2022/03/25 14:02:40;;;;;;;7.68;4.60;;;;;;;;;;5076741;28;20040;-63
2022/03/25 14:05:14;;;;;;;8.85;5.25;;;;;;;;;;5076393;28;20040;-62
2022/03/25 14:07:39;;;;;;;12.68;7.95;;;;;;;;;;5076599;28;20135;-62
2022/03/25 14:13:59;;;;;;;11.65;5.47;;;;;;;;;;5076745;28;20241;-62
2022/03/25 14:16:26;;;;;;;9.32;4.43;;;;;;;;;;5076399;28;20051;-62
2022/03/25 14:18:53;;;;;;;7.45;5.28;;;;;;;;;;5075732;28;20058;-71
2022/03/25 14:21:22;;;;;;;8.43;5.38;;;;;;;;;;5076360;28;20123;-71
2022/03/25 14:23:48;;;;;;;9.60;4.68;;;;;;;;;;5076306;28;20483;-71
2022/03/25 14:26:13;;;;;;;12.15;5.20;;;;;;;;;;5076166;28;20044;-71
2022/03/25 14:28:39;;;;;;;8.57;4.90;;;;;;;;;;5058194;28;20033;-71
2022/03/25 14:31:04;;;;;;;6.30;4.03;;;;;;;;;;5076287;28;20044;-72
2022/03/25 14:33:30;;;;;;;13.85;6.25;;;;;;;;;;5058227;28;20120;-71
2022/03/25 14:35:58;;;;;;;6.22;3.35;;;;;;;;;;5076435;28;20118;-73